Time;durP1;ratioP1;P1;durP2;ratioP2;P2;SDS_P1;SDS_P2;PMS_P1;PMS_P2;Temp;Humidity;BMP_temperature;BMP_pressure;BME280_temperature;BME280_humidity;BME280_pressure;Samples;Min_cycle;Max_cycle;Signal;HPM_P1;HPM_P2
2022/12/10 00:01:57;;;;;;;44.25;24.85;;;0.30;99.90;;;;;;6180652;23;20012;-90
2022/12/10 00:04:24;;;;;;;44.55;25.20;;;0.10;99.90;;;;;;6179612;23;20009;-89
2022/12/10 00:06:50;;;;;;;56.60;30.40;;;-0.40;99.90;;;;;;6181018;23;20097;-89
2022/12/10 00:09:18;;;;;;;53.58;28.95;;;-0.30;99.90;;;;;;6181399;23;20319;-90
2022/12/10 00:11:44;;;;;;;54.07;28.93;;;-0.30;99.90;;;;;;6180360;23;20013;-90
2022/12/10 00:14:12;;;;;;;55.03;28.17;;;-0.60;99.90;;;;;;6179769;23;20100;-92
2022/12/10 00:16:38;;;;;;;50.92;28.02;;;-0.50;99.90;;;;;;6180619;23;20063;-89
2022/12/10 00:19:05;;;;;;;51.50;28.50;;;-0.30;99.90;;;;;;6180762;23;20024;-89
2022/12/10 00:21:33;;;;;;;60.45;31.42;;;-0.10;99.90;;;;;;6180504;23;20005;-90
2022/12/10 00:24:00;;;;;;;64.82;34.05;;;0.10;99.90;;;;;;6181905;23;20454;-90
2022/12/10 00:26:32;;;;;;;57.33;31.65;;;0.20;99.90;;;;;;6179783;23;20024;-90
2022/12/10 00:29:02;;;;;;;59.20;29.33;;;-0.90;99.90;;;;;;6180803;23;20001;-90
2022/12/10 00:31:31;;;;;;;53.53;29.58;;;0.10;99.90;;;;;;6182377;23;20312;-92
2022/12/10 00:33:59;;;;;;;47.17;27.48;;;-1.00;99.90;;;;;;6181845;23;20005;-89
2022/12/10 00:36:35;;;;;;;48.00;28.95;;;-0.60;99.90;;;;;;6180177;23;20033;-91
2022/12/10 00:39:02;;;;;;;52.72;28.55;;;-0.60;99.90;;;;;;6181779;23;20001;-91
2022/12/10 00:41:29;;;;;;;49.10;28.08;;;-0.60;99.90;;;;;;6181230;23;20430;-90
2022/12/10 00:43:55;;;;;;;50.40;28.50;;;0.30;99.90;;;;;;6179459;23;20388;-89
2022/12/10 00:46:20;;;;;;;52.38;29.25;;;-0.30;99.90;;;;;;6182862;23;20497;-89
2022/12/10 00:48:46;;;;;;;53.17;28.77;;;0.00;99.90;;;;;;6180220;23;20076;-91
2022/12/10 00:51:18;;;;;;;54.72;29.55;;;-0.30;99.90;;;;;;6181578;23;20001;-90
2022/12/10 00:53:45;;;;;;;49.83;26.42;;;-0.70;99.90;;;;;;6181249;23;20055;-88
2022/12/10 00:56:12;;;;;;;50.22;24.58;;;0.30;99.90;;;;;;6179869;23;20472;-89
2022/12/10 00:58:39;;;;;;;47.70;25.55;;;-0.40;99.90;;;;;;6179938;23;20084;-90
2022/12/10 01:01:15;;;;;;;44.10;24.08;;;-0.10;99.90;;;;;;6181620;23;20004;-90
2022/12/10 01:03:41;;;;;;;43.33;24.65;;;-0.20;99.90;;;;;;6180361;23;20044;-90
2022/12/10 01:06:15;;;;;;;37.30;22.55;;;-1.00;99.90;;;;;;6179147;23;20445;-90
2022/12/10 01:08:41;;;;;;;40.35;23.17;;;-1.00;99.90;;;;;;6179736;23;20083;-90
2022/12/10 01:11:07;;;;;;;37.65;21.88;;;-0.80;99.90;;;;;;6179494;23;20005;-89
2022/12/10 01:13:34;;;;;;;40.92;23.25;;;-0.50;99.90;;;;;;6179934;23;20036;-89
2022/12/10 01:16:07;;;;;;;68.97;33.65;;;-0.10;99.90;;;;;;6181282;23;20014;-90
2022/12/10 01:18:33;;;;;;;60.65;29.52;;;-1.10;99.90;;;;;;6181673;23;20051;-88
2022/12/10 01:21:08;;;;;;;48.97;26.65;;;-1.10;99.90;;;;;;6192226;23;20005;-88
2022/12/10 01:23:40;;;;;;;44.85;25.55;;;-0.80;99.90;;;;;;6198135;23;20416;-88
2022/12/10 01:26:09;;;;;;;46.92;24.23;;;-0.50;99.90;;;;;;6202853;23;20009;-89
2022/12/10 01:28:35;;;;;;;;;;;-0.70;99.90;;;;;;6194304;23;20005;-89
2022/12/10 01:31:03;;;;;;;46.67;26.02;;;0.10;99.90;;;;;;6180874;23;19901;-87
2022/12/10 01:33:29;;;;;;;42.40;24.53;;;-1.10;99.90;;;;;;6182363;23;20021;-90
2022/12/10 01:36:01;;;;;;;48.03;24.83;;;-0.80;99.90;;;;;;6181183;23;20291;-91
2022/12/10 01:38:26;;;;;;;49.38;26.63;;;-1.00;99.90;;;;;;6179568;23;20012;-89
2022/12/10 01:40:52;;;;;;;49.05;26.85;;;-1.00;99.90;;;;;;6181938;23;20032;-89
2022/12/10 01:43:18;;;;;;;48.10;25.85;;;-0.60;99.90;;;;;;6179248;23;20001;-90
2022/12/10 01:45:43;;;;;;;48.50;26.38;;;-1.00;99.90;;;;;;6180916;23;20341;-90
2022/12/10 01:48:10;;;;;;;49.67;26.50;;;-1.40;99.90;;;;;;6179824;23;20350;-88
2022/12/10 01:50:36;;;;;;;44.60;24.20;;;-1.40;99.90;;;;;;6179640;23;20025;-89
2022/12/10 01:53:02;;;;;;;42.13;23.45;;;-0.80;99.90;;;;;;6181282;23;20028;-89
2022/12/10 01:55:50;;;;;;;44.58;24.27;;;-1.20;99.90;;;;;;6177794;23;20092;-90
2022/12/10 01:58:18;;;;;;;37.47;22.53;;;-1.40;99.90;;;;;;6178628;23;20080;-91
2022/12/10 02:00:56;;;;;;;39.97;22.90;;;-0.90;99.90;;;;;;6179507;23;20013;-91
2022/12/10 02:04:08;;;;;;;47.97;26.27;;;-1.20;99.90;;;;;;6180434;23;20319;-90
2022/12/10 02:07:04;;;;;;;41.60;23.50;;;-1.10;99.90;;;;;;6157129;23;20021;-91
2022/12/10 02:09:50;;;;;;;44.17;24.90;;;-1.10;99.90;;;;;;6179782;23;20004;-90
2022/12/10 02:12:49;;;;;;;40.65;22.98;;;-1.00;99.90;;;;;;6179553;23;20009;-91
2022/12/10 02:15:21;;;;;;;40.22;22.73;;;-1.00;99.90;;;;;;6180893;23;19997;-90
2022/12/10 02:17:59;;;;;;;39.97;24.45;;;-0.40;99.90;;;;;;6181745;23;20369;-91
2022/12/10 02:20:32;;;;;;;47.25;24.40;;;-1.10;99.90;;;;;;6182152;23;20005;-90
2022/12/10 02:23:00;;;;;;;38.92;22.80;;;-1.50;99.90;;;;;;6180874;23;20004;-90
2022/12/10 02:25:39;;;;;;;45.63;24.92;;;-0.30;99.90;;;;;;6180080;23;20031;-90
2022/12/10 02:28:18;;;;;;;44.50;23.88;;;-0.40;99.90;;;;;;6179297;23;20016;-89
2022/12/10 02:30:46;;;;;;;40.58;23.50;;;-1.10;99.90;;;;;;6179292;23;20027;-91
2022/12/10 02:33:16;;;;;;;44.47;24.63;;;-1.30;99.90;;;;;;6180477;23;20039;-91
2022/12/10 02:35:42;;;;;;;42.03;23.75;;;-0.80;99.90;;;;;;6180910;23;20064;-91
2022/12/10 02:38:26;;;;;;;40.70;22.90;;;-1.20;99.90;;;;;;6179190;23;20005;-91
2022/12/10 02:40:59;;;;;;;37.85;22.50;;;-0.40;99.90;;;;;;6179727;23;20008;-91
2022/12/10 02:43:29;;;;;;;40.50;24.25;;;-0.60;99.90;;;;;;6179730;23;20005;-89
2022/12/10 02:45:57;;;;;;;46.67;26.58;;;-1.20;99.90;;;;;;6179837;23;20047;-90
2022/12/10 02:48:26;;;;;;;43.88;26.00;;;0.00;99.90;;;;;;6179186;23;20454;-89
2022/12/10 02:50:51;;;;;;;48.17;26.60;;;-1.40;99.90;;;;;;6181027;23;20001;-89
2022/12/10 02:53:17;;;;;;;44.40;24.25;;;-0.70;99.90;;;;;;6178798;23;20092;-90
2022/12/10 02:55:49;;;;;;;48.10;28.10;;;-1.10;99.90;;;;;;6179270;23;20032;-89
2022/12/10 02:58:57;;;;;;;60.45;33.45;;;-1.40;99.90;;;;;;6180836;23;20080;-89
2022/12/10 03:01:29;;;;;;;47.47;26.83;;;-1.60;99.90;;;;;;6179263;23;20087;-89
2022/12/10 03:04:03;;;;;;;48.53;26.60;;;-1.60;99.90;;;;;;6180085;23;20493;-90
2022/12/10 03:06:43;;;;;;;45.22;27.30;;;-1.60;99.90;;;;;;6179890;23;20391;-92
2022/12/10 03:09:16;;;;;;;50.22;27.60;;;-1.20;99.90;;;;;;6180585;23;20009;-89
2022/12/10 03:11:44;;;;;;;45.65;26.90;;;-1.20;99.90;;;;;;6181086;23;20345;-90
2022/12/10 03:14:15;;;;;;;45.63;26.23;;;-1.70;99.90;;;;;;6182627;23;20136;-89
2022/12/10 03:16:45;;;;;;;44.88;25.85;;;-1.60;99.90;;;;;;6181273;23;20001;-90
2022/12/10 03:19:15;;;;;;;47.55;25.52;;;-1.00;99.90;;;;;;6181158;23;20056;-90
2022/12/10 03:21:41;;;;;;;43.58;25.52;;;-1.10;99.90;;;;;;6180460;23;20005;-90
2022/12/10 03:24:12;;;;;;;43.17;25.80;;;-0.90;99.90;;;;;;6181289;23;20100;-89
2022/12/10 03:26:40;;;;;;;47.08;25.70;;;-1.00;99.90;;;;;;6182614;23;20471;-90
2022/12/10 03:29:10;;;;;;;49.67;27.80;;;-1.40;99.90;;;;;;6182608;23;19997;-90
2022/12/10 03:31:39;;;;;;;44.47;25.63;;;-0.80;99.90;;;;;;6181001;23;20009;-90
2022/12/10 03:34:05;;;;;;;;;;;-0.70;99.90;;;;;;6181359;23;20005;-91
2022/12/10 03:36:32;;;;;;;45.88;25.17;;;-1.00;99.90;;;;;;6183764;23;20379;-91
2022/12/10 03:38:59;;;;;;;44.95;23.13;;;-1.00;99.90;;;;;;6183135;23;20056;-89
2022/12/10 03:41:24;;;;;;;38.03;22.58;;;-0.80;99.90;;;;;;6182712;23;20000;-90
2022/12/10 03:43:58;;;;;;;42.17;24.17;;;-1.30;99.90;;;;;;6182489;23;20496;-90
2022/12/10 03:46:26;;;;;;;39.00;21.98;;;-1.00;99.90;;;;;;6182396;23;20088;-91
2022/12/10 03:48:52;;;;;;;37.43;22.43;;;-0.60;99.90;;;;;;6182288;23;20001;-90
2022/12/10 03:51:19;;;;;;;38.42;23.00;;;-0.90;99.90;;;;;;6182583;23;20008;-91
2022/12/10 03:53:44;;;;;;;38.28;21.80;;;-1.40;99.90;;;;;;6182429;23;20005;-89
2022/12/10 03:56:11;;;;;;;35.92;20.17;;;-1.40;99.90;;;;;;6182427;23;20068;-90
2022/12/10 03:58:37;;;;;;;36.28;21.00;;;-0.70;99.90;;;;;;6194839;23;20005;-88
2022/12/10 04:01:03;;;;;;;38.75;20.88;;;-0.50;99.90;;;;;;6202480;23;19986;-88
2022/12/10 04:03:29;;;;;;;34.70;21.13;;;-0.20;99.90;;;;;;6205885;23;20005;-87
2022/12/10 04:06:01;;;;;;;31.33;19.73;;;-1.70;99.90;;;;;;6192523;23;20013;-89
2022/12/10 04:08:27;;;;;;;35.80;20.85;;;-1.00;99.90;;;;;;6181763;23;20445;-89
2022/12/10 04:10:52;;;;;;;33.25;19.40;;;-1.50;99.90;;;;;;6180991;23;20032;-88
2022/12/10 04:18:46;;;;;;;31.52;18.58;;;-1.40;99.90;;;;;;6181751;23;20042;-88
2022/12/10 04:26:52;;;;;;;28.85;17.73;;;-1.10;99.90;;;;;;6182152;23;20063;-88
2022/12/10 04:29:19;;;;;;;28.63;17.77;;;-1.40;99.90;;;;;;6180496;23;20465;-88
2022/12/10 04:31:44;;;;;;;30.90;16.58;;;-0.90;99.90;;;;;;6182185;23;20012;-89
2022/12/10 04:34:10;;;;;;;29.17;17.85;;;-0.60;99.90;;;;;;6180409;23;20009;-89
2022/12/10 04:36:36;;;;;;;29.55;17.83;;;;;;;;;;6180243;23;20009;-88
2022/12/10 04:39:03;;;;;;;27.85;17.77;;;-1.40;99.90;;;;;;6182555;23;20063;-89
2022/12/10 04:41:30;;;;;;;34.08;19.15;;;-1.60;99.90;;;;;;6182073;23;20056;-88
2022/12/10 04:43:56;;;;;;;34.70;20.95;;;-2.00;99.90;;;;;;6180261;23;20580;-88
2022/12/10 04:46:22;;;;;;;38.22;23.45;;;-1.70;99.90;;;;;;6179929;23;20036;-89
2022/12/10 04:48:48;;;;;;;33.25;20.77;;;-1.90;99.90;;;;;;6181676;23;20009;-91
2022/12/10 04:51:13;;;;;;;35.25;21.42;;;-1.10;99.90;;;;;;6179964;23;20051;-88
2022/12/10 04:53:39;;;;;;;35.75;20.42;;;-2.10;99.90;;;;;;6182360;23;20029;-90
2022/12/10 04:56:06;;;;;;;34.88;21.25;;;-2.40;99.90;;;;;;6182363;23;20004;-89
2022/12/10 04:58:33;;;;;;;41.42;22.88;;;-2.10;99.90;;;;;;6182314;23;20032;-91
2022/12/10 05:01:07;;;;;;;38.72;22.77;;;-1.90;99.90;;;;;;6180191;23;20005;-89
2022/12/10 05:03:33;;;;;;;45.45;23.95;;;-1.80;99.90;;;;;;6182598;23;20028;-88
2022/12/10 05:06:07;;;;;;;43.67;24.33;;;-1.90;99.90;;;;;;6180221;23;20434;-88
2022/12/10 05:08:34;;;;;;;42.03;24.52;;;-2.30;99.90;;;;;;6181485;23;20442;-89
2022/12/10 05:11:05;;;;;;;39.80;23.52;;;-1.80;99.90;;;;;;6181617;23;20001;-89
2022/12/10 05:13:31;;;;;;;38.88;22.48;;;-2.20;99.90;;;;;;6180951;23;20032;-88
2022/12/10 05:15:57;;;;;;;41.70;24.42;;;-1.80;99.90;;;;;;6178438;23;20637;-89
2022/12/10 05:18:23;;;;;;;39.80;22.40;;;-2.20;99.90;;;;;;6179711;23;20381;-91
2022/12/10 05:20:50;;;;;;;45.67;24.02;;;-1.10;99.90;;;;;;6178856;23;20032;-90
2022/12/10 05:23:27;;;;;;;41.80;23.55;;;-1.40;99.90;;;;;;6180189;23;20012;-90
2022/12/10 05:26:08;;;;;;;45.57;24.43;;;-1.40;99.90;;;;;;6179529;23;20013;-88
2022/12/10 05:28:43;;;;;;;49.83;25.80;;;-1.90;99.90;;;;;;6181787;23;20505;-90
2022/12/10 05:31:18;;;;;;;41.70;24.00;;;-1.90;99.90;;;;;;6179486;23;20671;-91
2022/12/10 05:33:46;;;;;;;40.90;22.80;;;-2.00;99.90;;;;;;6181749;23;20005;-90
2022/12/10 05:36:17;;;;;;;40.70;23.17;;;-1.70;99.90;;;;;;6180775;23;20009;-88
2022/12/10 05:38:45;;;;;;;42.70;21.38;;;-1.90;99.90;;;;;;6179908;23;20005;-89
2022/12/10 05:41:14;;;;;;;36.38;20.80;;;-1.20;99.90;;;;;;6180023;23;20012;-89
2022/12/10 05:43:40;;;;;;;33.80;19.83;;;-1.60;99.90;;;;;;6179912;23;20004;-90
2022/12/10 05:46:12;;;;;;;37.53;19.58;;;-1.30;99.90;;;;;;6180094;23;20097;-90
2022/12/10 05:48:41;;;;;;;32.92;18.65;;;-1.60;99.90;;;;;;6180331;23;20001;-89
2022/12/10 05:51:09;;;;;;;34.70;18.98;;;-1.60;99.90;;;;;;6179478;23;20005;-88
2022/12/10 05:53:38;;;;;;;30.25;17.65;;;-0.60;99.90;;;;;;6179926;23;20044;-89
2022/12/10 05:56:19;;;;;;;30.10;17.60;;;-1.50;99.90;;;;;;6179182;23;20004;-88
2022/12/10 05:58:46;;;;;;;31.42;17.85;;;-1.50;99.90;;;;;;6179583;23;20001;-89
2022/12/10 06:01:15;;;;;;;29.92;17.13;;;-0.70;99.90;;;;;;6181100;23;20012;-91
2022/12/10 06:03:41;;;;;;;26.98;16.40;;;-1.10;99.90;;;;;;6178908;23;20005;-89
2022/12/10 06:06:07;;;;;;;26.92;15.00;;;-1.60;99.90;;;;;;6180248;23;20013;-89
2022/12/10 06:08:34;;;;;;;28.95;17.17;;;-1.50;99.90;;;;;;6180951;23;20001;-89
2022/12/10 06:11:09;;;;;;;31.73;17.83;;;-1.40;99.90;;;;;;6179279;23;20172;-89
2022/12/10 06:13:35;;;;;;;29.42;17.70;;;-1.60;99.90;;;;;;6181881;23;20009;-88
2022/12/10 06:16:06;;;;;;;29.38;17.10;;;-1.50;99.90;;;;;;6179538;23;20009;-88
2022/12/10 06:18:32;;;;;;;27.50;16.15;;;-1.50;99.90;;;;;;6178977;23;20083;-89
2022/12/10 06:20:59;;;;;;;26.98;17.70;;;-1.20;99.90;;;;;;6180525;23;20706;-89
2022/12/10 06:23:28;;;;;;;29.90;17.75;;;-1.00;99.90;;;;;;6179514;23;20076;-89
2022/12/10 06:25:56;;;;;;;33.17;17.52;;;-1.20;99.90;;;;;;6179008;23;20013;-89
2022/12/10 06:28:31;;;;;;;29.17;18.00;;;-0.80;99.90;;;;;;6179494;23;20016;-89
2022/12/10 06:30:59;;;;;;;31.70;18.67;;;-0.90;99.90;;;;;;6181659;23;20021;-90
2022/12/10 06:33:25;;;;;;;36.33;20.23;;;-0.90;99.90;;;;;;6178533;23;20462;-88
2022/12/10 06:36:14;;;;;;;33.90;20.05;;;-1.40;99.90;;;;;;6182543;23;20252;-90
2022/12/10 06:38:42;;;;;;;32.58;19.67;;;-1.50;99.90;;;;;;6195047;23;20061;-93
2022/12/10 06:41:20;;;;;;;33.03;19.80;;;-1.50;99.90;;;;;;6208215;23;20044;-91
2022/12/10 06:43:46;;;;;;;34.58;21.42;;;-0.40;99.90;;;;;;6208540;23;19985;-89
2022/12/10 06:46:18;;;;;;;35.15;20.55;;;-0.80;99.90;;;;;;6195623;23;20009;-90
2022/12/10 06:48:44;;;;;;;39.42;21.05;;;-1.40;99.90;;;;;;6182336;23;20426;-89
2022/12/10 06:51:11;;;;;;;35.33;21.08;;;-1.00;99.90;;;;;;6180950;23;20011;-89
2022/12/10 06:53:38;;;;;;;36.95;22.05;;;-1.60;99.90;;;;;;6181786;23;20008;-90
2022/12/10 06:56:05;;;;;;;41.08;21.80;;;-0.90;99.90;;;;;;6180040;23;19997;-91
2022/12/10 06:58:33;;;;;;;37.53;20.55;;;-1.60;99.90;;;;;;6180406;23;20324;-90
2022/12/10 07:01:08;;;;;;;37.72;21.77;;;-1.20;99.90;;;;;;6180809;23;20044;-90
2022/12/10 07:03:33;;;;;;;36.67;21.38;;;-1.60;99.90;;;;;;6181164;23;20009;-88
2022/12/10 07:06:00;;;;;;;35.78;21.42;;;-1.00;99.90;;;;;;6179293;23;20035;-90
2022/12/10 07:08:26;;;;;;;35.50;21.08;;;-1.60;99.90;;;;;;6180500;23;20006;-91
2022/12/10 07:10:52;;;;;;;35.72;21.27;;;-1.40;99.90;;;;;;6180075;23;20001;-88
2022/12/10 07:13:18;;;;;;;38.92;22.55;;;-1.20;99.90;;;;;;6179874;23;20127;-88
2022/12/10 07:15:43;;;;;;;37.17;23.05;;;-1.00;99.90;;;;;;6180493;23;20048;-87
2022/12/10 07:18:09;;;;;;;40.60;23.17;;;-1.40;99.90;;;;;;6181053;23;20071;-88
2022/12/10 07:20:35;;;;;;;39.70;23.13;;;-1.20;99.90;;;;;;6179407;23;20052;-88
2022/12/10 07:23:00;;;;;;;41.50;22.23;;;-1.10;99.90;;;;;;6179319;23;20005;-87
2022/12/10 07:25:26;;;;;;;38.97;22.65;;;-1.50;99.90;;;;;;6179045;23;20005;-88
2022/12/10 07:27:52;;;;;;;39.83;21.48;;;-1.50;99.90;;;;;;6178682;23;20358;-87
2022/12/10 07:30:17;;;;;;;40.88;22.17;;;-1.60;99.90;;;;;;6178460;23;20005;-88
2022/12/10 07:32:43;;;;;;;39.58;23.02;;;-1.60;99.90;;;;;;6181168;23;20001;-88
2022/12/10 07:35:09;;;;;;;38.30;23.13;;;-1.60;99.90;;;;;;6179359;23;20008;-88
2022/12/10 07:37:34;;;;;;;39.72;22.17;;;-1.60;99.90;;;;;;6177312;23;20005;-88
2022/12/10 07:40:00;;;;;;;39.70;22.35;;;-1.70;99.90;;;;;;6182263;23;20013;-88
2022/12/10 07:42:26;;;;;;;38.55;22.42;;;-1.60;99.90;;;;;;6178395;23;20029;-91
2022/12/10 07:44:51;;;;;;;39.42;22.90;;;-1.40;99.90;;;;;;6178671;23;20028;-87
2022/12/10 07:47:17;;;;;;;38.13;21.95;;;-1.70;99.90;;;;;;6178816;23;20028;-89
2022/12/10 07:49:43;;;;;;;38.55;23.45;;;-1.40;99.90;;;;;;6179902;23;20001;-90
2022/12/10 07:52:08;;;;;;;43.60;22.95;;;-1.70;99.90;;;;;;6179045;23;20027;-91
2022/12/10 07:54:34;;;;;;;36.90;21.65;;;-1.10;99.90;;;;;;6179445;23;20325;-89
2022/12/10 07:57:00;;;;;;;40.20;22.58;;;-1.60;99.90;;;;;;6181046;23;20492;-87
2022/12/10 07:59:26;;;;;;;41.88;23.05;;;-1.60;99.90;;;;;;6180946;23;20005;-89
2022/12/10 08:01:52;;;;;;;36.95;22.85;;;-1.60;99.90;;;;;;6179468;23;20063;-89
2022/12/10 08:04:18;;;;;;;40.83;22.90;;;-1.60;99.90;;;;;;6179164;23;20433;-89
2022/12/10 08:06:44;;;;;;;40.38;22.95;;;-1.60;99.90;;;;;;6180443;23;20144;-89
2022/12/10 08:09:10;;;;;;;35.30;21.65;;;-1.60;99.90;;;;;;6179304;23;20487;-89
2022/12/10 08:11:36;;;;;;;37.10;22.33;;;-1.60;99.90;;;;;;6178587;23;20037;-87
2022/12/10 08:14:02;;;;;;;38.13;22.42;;;-0.90;99.90;;;;;;6180807;23;20307;-88
2022/12/10 08:16:28;;;;;;;38.22;23.20;;;-1.60;99.90;;;;;;6180670;23;20043;-88
2022/12/10 08:19:00;;;;;;;37.25;22.27;;;-1.50;99.90;;;;;;6180934;23;20345;-90
2022/12/10 08:21:28;;;;;;;40.92;22.80;;;-1.60;99.90;;;;;;6180231;23;20005;-87
2022/12/10 08:23:54;;;;;;;37.38;21.73;;;-1.00;99.90;;;;;;6180472;23;20001;-89
2022/12/10 08:26:24;;;;;;;38.25;22.63;;;-1.00;99.90;;;;;;6179323;23;20025;-89
2022/12/10 08:28:50;;;;;;;37.45;22.30;;;-1.40;99.90;;;;;;6178794;23;20087;-89
2022/12/10 08:31:18;;;;;;;43.25;22.10;;;-1.10;99.90;;;;;;6178974;23;20005;-88
2022/12/10 08:33:45;;;;;;;39.85;21.70;;;-1.00;99.90;;;;;;6180475;23;20012;-88
2022/12/10 08:36:13;;;;;;;40.97;22.70;;;-1.30;99.90;;;;;;6179991;23;20008;-87
2022/12/10 08:38:40;;;;;;;41.95;23.08;;;-0.40;99.90;;;;;;6182029;23;20015;-87
2022/12/10 08:41:13;;;;;;;43.00;25.08;;;-1.30;99.90;;;;;;6180827;23;20009;-87
2022/12/10 08:43:39;;;;;;;53.25;30.65;;;-1.30;99.90;;;;;;6181460;23;20083;-88
2022/12/10 08:46:05;;;;;;;69.25;38.85;;;-1.30;99.90;;;;;;6180807;23;20428;-89
2022/12/10 08:48:35;;;;;;;63.22;35.63;;;-1.30;99.90;;;;;;6173175;23;20009;-88
2022/12/10 08:51:02;;;;;;;73.75;39.40;;;-1.20;99.90;;;;;;6176285;23;20080;-87
2022/12/10 08:53:27;;;;;;;99.65;49.83;;;-1.20;99.90;;;;;;6179669;23;20484;-89
2022/12/10 08:55:54;;;;;;;140.00;64.18;;;-1.00;99.90;;;;;;6179527;23;20005;-88
2022/12/10 08:58:20;;;;;;;85.57;44.90;;;-0.40;99.90;;;;;;6178653;23;20009;-87
2022/12/10 09:00:47;;;;;;;73.70;40.10;;;-1.10;99.90;;;;;;6180452;23;20488;-90
2022/12/10 09:03:14;;;;;;;71.80;39.17;;;-1.30;99.90;;;;;;6179999;23;20001;-89
2022/12/10 09:05:40;;;;;;;62.85;35.67;;;-1.00;99.90;;;;;;6179208;23;20569;-91
2022/12/10 09:08:06;;;;;;;57.45;32.70;;;-0.80;99.90;;;;;;6177946;23;20097;-89
2022/12/10 09:10:39;;;;;;;59.45;31.75;;;-1.00;99.90;;;;;;6178384;23;20047;-89
2022/12/10 09:13:07;;;;;;;45.65;27.67;;;-0.90;99.90;;;;;;6179225;23;20002;-92
2022/12/10 09:15:33;;;;;;;45.47;28.10;;;-0.80;99.90;;;;;;6180755;23;20008;-88
2022/12/10 09:17:59;;;;;;;48.10;27.38;;;-0.90;99.90;;;;;;6179350;23;20008;-91
2022/12/10 09:20:25;;;;;;;46.22;26.00;;;0.00;99.90;;;;;;6188740;23;20001;-89
2022/12/10 09:22:51;;;;;;;43.60;24.92;;;-0.20;99.90;;;;;;6195841;23;20005;-90
2022/12/10 09:25:17;;;;;;;41.08;25.48;;;-0.20;99.90;;;;;;6202723;23;20434;-89
2022/12/10 09:27:43;;;;;;;37.17;23.80;;;-0.70;99.90;;;;;;6198846;23;20364;-88
2022/12/10 09:30:10;;;;;;;40.88;25.33;;;-0.50;99.90;;;;;;6183258;23;20419;-88
2022/12/10 09:32:36;;;;;;;41.08;26.10;;;-0.60;99.90;;;;;;6179842;23;20374;-87
2022/12/10 09:35:03;;;;;;;45.22;25.40;;;-0.10;99.90;;;;;;6181160;23;20008;-88
2022/12/10 09:37:28;;;;;;;47.25;25.75;;;-0.60;99.90;;;;;;6183472;23;20008;-87
2022/12/10 09:39:54;;;;;;;47.92;25.63;;;-0.60;99.90;;;;;;6184173;23;20023;-87
2022/12/10 09:42:39;;;;;;;42.40;26.42;;;-0.50;99.90;;;;;;6181643;23;20502;-85
2022/12/10 09:45:29;;;;;;;42.83;25.20;;;-0.50;99.90;;;;;;6180206;23;20008;-84
2022/12/10 09:48:15;;;;;;;45.90;27.65;;;-0.50;99.90;;;;;;6180028;23;20013;-83
2022/12/10 09:51:09;;;;;;;46.65;26.77;;;-0.40;99.90;;;;;;6180692;23;20005;-84
